Time;durP1;ratioP1;P1;durP2;ratioP2;P2;SDS_P1;SDS_P2;PMS_P1;PMS_P2;Temp;Humidity;BMP_temperature;BMP_pressure;BME280_temperature;BME280_humidity;BME280_pressure;Samples;Min_cycle;Max_cycle;Signal;HPM_P1;HPM_P2
2023/01/09 00:00:28;;;;;;;49.05;29.83;;;;;;;-1.96;83.03;93705.34;5008238;28;20030;-39
2023/01/09 00:02:53;;;;;;;51.47;30.90;;;;;;;-2.01;83.21;93697.09;5007716;28;20164;-39
2023/01/09 00:05:19;;;;;;;58.70;33.17;;;;;;;-1.83;82.39;93700.44;5021596;28;20663;-40
2023/01/09 00:07:44;;;;;;;54.85;32.17;;;;;;;-1.67;81.72;93704.69;5027704;28;20040;-39
2023/01/09 00:10:11;;;;;;;47.97;26.23;;;;;;;-1.70;81.58;93700.19;5028245;28;20040;-39
2023/01/09 00:12:36;;;;;;;43.35;27.48;;;;;;;-1.91;83.05;93704.72;5027560;28;20029;-39
2023/01/09 00:15:03;;;;;;;32.47;19.73;;;;;;;-1.93;82.73;93699.03;5027975;28;20036;-39
2023/01/09 00:17:29;;;;;;;32.60;21.10;;;;;;;-2.12;83.75;93689.53;5017297;28;20034;-39
2023/01/09 00:19:54;;;;;;;34.22;19.90;;;;;;;-1.96;84.90;93682.94;5007998;28;20032;-39
2023/01/09 00:22:20;;;;;;;32.30;21.85;;;;;;;-2.28;85.34;93687.22;5007810;28;20061;-39
2023/01/09 00:24:45;;;;;;;31.95;21.20;;;;;;;-2.16;84.98;93683.53;5007835;28;20053;-39
2023/01/09 00:27:13;;;;;;;36.92;21.20;;;;;;;-2.40;85.37;93678.13;5007892;28;20125;-39
2023/01/09 00:29:40;;;;;;;33.33;21.50;;;;;;;-2.17;85.76;93673.94;5015597;28;20128;-39
2023/01/09 00:32:08;;;;;;;36.63;21.95;;;;;;;-2.17;85.48;93679.34;5028140;28;20061;-39
2023/01/09 00:34:36;;;;;;;30.38;20.25;;;;;;;-2.06;86.69;93682.28;5027262;28;20053;-39
2023/01/09 00:37:02;;;;;;;31.65;20.60;;;;;;;-1.96;86.30;93666.72;5027848;28;20037;-39
2023/01/09 00:39:28;;;;;;;25.77;16.95;;;;;;;-2.02;86.56;93669.31;5008543;28;20524;-39
2023/01/09 00:41:55;;;;;;;26.42;17.08;;;;;;;-2.04;87.51;93662.88;5007763;28;20025;-39
2023/01/09 00:44:25;;;;;;;29.92;18.42;;;;;;;-2.14;86.97;93643.25;5006434;28;20036;-39
2023/01/09 00:46:58;;;;;;;30.58;18.58;;;;;;;-1.99;86.94;93654.13;5006065;28;20068;-39
2023/01/09 00:49:24;;;;;;;36.10;20.60;;;;;;;-2.22;85.41;93649.47;5007898;28;20057;-39
2023/01/09 00:51:50;;;;;;;33.17;21.10;;;;;;;-2.37;85.41;93644.78;5006426;28;20057;-40
2023/01/09 00:54:17;;;;;;;45.40;26.13;;;;;;;-2.27;84.82;93648.16;5006282;28;20084;-39
2023/01/09 00:56:42;;;;;;;37.38;21.52;;;;;;;-2.42;85.33;93652.75;5007814;28;20084;-39
2023/01/09 00:59:08;;;;;;;25.63;17.48;;;;;;;-2.47;85.24;93645.31;5006325;28;20485;-40
2023/01/09 01:01:33;;;;;;;35.53;19.58;;;;;;;-2.40;85.11;93642.22;5007315;28;20588;-39
2023/01/09 01:07:37;;;;;;;36.15;20.48;;;;;;;-2.28;85.44;93649.38;5010133;28;20042;-39
2023/01/09 01:09:28;;;;;;;27.00;16.08;;;;;;;-2.20;88.07;93638.94;5027565;28;20516;-40
2023/01/09 01:11:53;;;;;;;25.10;16.52;;;;;;;-2.10;88.56;93638.41;5026973;28;20041;-39
2023/01/09 01:14:19;;;;;;;27.85;19.05;;;;;;;-2.30;88.25;93635.56;5029505;28;20025;-39
2023/01/09 01:16:44;;;;;;;25.30;16.90;;;;;;;-2.31;88.13;93628.66;5026735;28;20029;-39
2023/01/09 01:19:09;;;;;;;33.20;17.92;;;;;;;-2.09;87.92;93628.34;5011870;28;20037;-39
2023/01/09 01:21:35;;;;;;;29.98;16.55;;;;;;;-2.24;87.44;93625.59;5011362;28;20084;-39
2023/01/09 01:24:00;;;;;;;26.42;17.35;;;;;;;-2.32;87.52;93621.78;5011419;28;20022;-39
2023/01/09 01:26:26;;;;;;;20.80;15.07;;;;;;;-2.28;87.28;93614.22;5009925;28;20049;-39
2023/01/09 01:28:51;;;;;;;21.00;14.73;;;;;;;-2.06;87.27;93620.06;5013082;28;20029;-39
2023/01/09 01:31:18;;;;;;;25.48;15.38;;;;;;;-2.18;86.95;93618.34;5031073;28;20436;-39
2023/01/09 01:33:43;;;;;;;24.40;15.88;;;;;;;-2.30;87.90;93609.25;5030910;28;20021;-39
2023/01/09 01:36:09;;;;;;;24.63;15.73;;;;;;;-2.11;87.81;93609.88;5030846;28;20622;-39
2023/01/09 01:38:35;;;;;;;21.33;15.25;;;;;;;-2.11;88.15;93604.47;5030892;28;20025;-39
2023/01/09 01:41:01;;;;;;;28.25;16.75;;;;;;;-2.03;86.73;93597.47;5030759;28;20037;-39
2023/01/09 01:43:27;;;;;;;24.65;16.20;;;;;;;-2.21;87.31;93581.44;5029109;28;20029;-39
2023/01/09 01:45:53;;;;;;;28.50;17.00;;;;;;;-2.25;88.68;93591.66;5019186;28;20429;-39
2023/01/09 01:48:24;;;;;;;27.35;18.38;;;;;;;-2.22;89.89;93584.56;5010911;28;20038;-39
2023/01/09 01:50:59;;;;;;;43.28;24.67;;;;;;;-2.18;92.67;93580.47;5011066;28;20038;-40
2023/01/09 01:53:32;;;;;;;36.30;21.42;;;;;;;-2.14;92.49;93574.91;5009487;28;20033;-39
2023/01/09 01:56:20;;;;;;;36.35;22.25;;;;;;;-2.05;91.76;93570.16;5009710;28;20033;-39
2023/01/09 01:59:19;;;;;;;30.33;17.80;;;;;;;-2.01;90.70;93576.13;5010433;28;20121;-39
2023/01/09 02:01:51;;;;;;;33.25;19.65;;;;;;;-1.99;91.52;93565.56;5006666;28;20033;-39
2023/01/09 02:04:17;;;;;;;31.40;20.77;;;;;;;-1.88;92.11;93571.19;5013938;28;20536;-39
2023/01/09 02:06:43;;;;;;;27.73;18.08;;;;;;;-1.97;91.85;93560.44;5029046;28;20026;-39
2023/01/09 02:09:12;;;;;;;34.10;18.90;;;;;;;-1.87;91.94;93555.72;5029019;28;20048;-39
2023/01/09 02:11:44;;;;;;;41.53;20.60;;;;;;;-1.94;92.37;93562.22;5030540;28;20045;-39
2023/01/09 02:14:09;;;;;;;30.60;19.42;;;;;;;-1.92;92.55;93562.50;5030086;28;20090;-39
2023/01/09 02:16:38;;;;;;;38.63;20.95;;;;;;;-2.07;92.19;93558.28;5027176;28;20486;-39
2023/01/09 02:19:41;;;;;;;56.42;22.63;;;;;;;-1.95;93.19;93562.72;5010497;28;20414;-39
2023/01/09 02:22:34;;;;;;;35.28;22.08;;;;;;;-1.86;95.32;93555.22;5010313;28;20045;-39
2023/01/09 02:25:14;;;;;;;34.08;21.63;;;;;;;-1.68;94.95;93557.00;5009553;28;20453;-39
2023/01/09 02:27:58;;;;;;;38.20;23.02;;;;;;;-1.76;95.18;93559.34;5010191;28;20512;-39
2023/01/09 02:30:42;;;;;;;40.55;23.42;;;;;;;-1.63;96.76;93557.13;5024391;28;20033;-39
2023/01/09 02:33:12;;;;;;;42.92;22.73;;;;;;;-1.58;96.58;93551.03;5029955;28;20037;-40
2023/01/09 02:35:52;;;;;;;42.08;22.65;;;;;;;-1.36;97.76;93550.63;5010054;28;20077;-39
2023/01/09 02:38:52;;;;;;;43.30;24.35;;;;;;;-1.24;97.29;93552.28;5009981;28;20096;-39
2023/01/09 02:41:35;;;;;;;44.20;23.33;;;;;;;-1.17;97.16;93545.75;5009712;28;20034;-39
2023/01/09 02:44:20;;;;;;;47.55;26.95;;;;;;;-0.92;99.25;93547.81;5008811;28;20033;-40
2023/01/09 02:46:45;;;;;;;38.80;22.27;;;;;;;-1.11;97.74;93549.28;5009376;28;20062;-39
2023/01/09 02:49:11;;;;;;;42.00;22.17;;;;;;;-1.19;97.31;93559.00;5009675;28;20057;-39
2023/01/09 02:51:55;;;;;;;46.35;24.58;;;;;;;-1.16;97.36;93547.97;5009630;28;20037;-40
2023/01/09 02:54:29;;;;;;;40.13;22.00;;;;;;;-1.11;96.69;93560.09;5008250;28;20030;-40
2023/01/09 02:56:55;;;;;;;30.17;19.67;;;;;;;-1.18;96.36;93555.06;5008229;28;20029;-39
2023/01/09 02:59:46;;;;;;;33.20;20.23;;;;;;;-1.11;96.17;93552.72;5009573;28;20343;-39
2023/01/09 03:02:35;;;;;;;39.42;22.83;;;;;;;-0.89;97.85;93560.44;5009544;28;20072;-39
2023/01/09 03:05:28;;;;;;;33.22;20.83;;;;;;;-0.77;98.30;93549.25;5012180;28;20055;-39
2023/01/09 03:08:03;;;;;;;35.42;21.13;;;;;;;-0.69;97.85;93551.56;5027586;28;20044;-39
2023/01/09 03:10:39;;;;;;;38.67;22.52;;;;;;;-0.66;97.51;93542.47;5029425;28;20084;-39
2023/01/09 03:13:07;;;;;;;37.63;21.67;;;;;;;-0.69;96.52;93536.03;5027669;28;20557;-39
2023/01/09 03:15:35;;;;;;;35.35;19.83;;;;;;;-0.72;95.33;93542.41;5027710;28;20022;-39
2023/01/09 03:18:03;;;;;;;31.83;20.30;;;;;;;-0.55;94.94;93546.06;5014479;28;20449;-39
2023/01/09 03:20:30;;;;;;;31.83;19.75;;;;;;;-0.53;95.21;93538.22;5008142;28;20030;-40
2023/01/09 03:22:57;;;;;;;28.85;18.90;;;;;;;-0.51;93.48;93552.03;5008121;28;20026;-39
2023/01/09 03:25:24;;;;;;;29.20;19.27;;;;;;;-0.49;93.84;93554.25;5008994;28;20123;-40
2023/01/09 03:27:57;;;;;;;38.42;21.02;;;;;;;-0.54;95.74;93552.97;5009066;28;20056;-39
2023/01/09 03:30:23;;;;;;;26.05;18.30;;;;;;;-0.35;95.00;93558.88;5017131;28;20474;-40
2023/01/09 03:32:48;;;;;;;27.48;18.17;;;;;;;-0.34;94.29;93554.94;5007785;28;20032;-39
2023/01/09 03:35:14;;;;;;;27.70;18.00;;;;;;;-0.39;93.77;93555.63;5008789;28;20042;-40
2023/01/09 03:37:39;;;;;;;35.42;20.73;;;;;;;-0.38;94.87;93549.72;5008002;28;20076;-40
2023/01/09 03:40:05;;;;;;;40.88;22.27;;;;;;;-0.19;96.37;93561.78;5009025;28;20033;-40
2023/01/09 03:42:31;;;;;;;33.70;19.63;;;;;;;-0.18;95.75;93557.09;5008734;28;20072;-40
2023/01/09 03:44:56;;;;;;;30.42;19.80;;;;;;;-0.06;95.32;93545.88;5008248;28;20053;-39
2023/01/09 03:47:22;;;;;;;32.28;20.77;;;;;;;-0.18;96.05;93555.13;5008687;28;20026;-39
2023/01/09 03:49:47;;;;;;;33.95;20.88;;;;;;;-0.07;96.32;93549.84;5008733;28;20684;-40
2023/01/09 03:52:12;;;;;;;32.67;20.10;;;;;;;0.05;96.10;93555.34;5008347;28;20498;-39
2023/01/09 03:54:38;;;;;;;55.28;31.13;;;;;;;-0.07;94.92;93549.84;5008759;28;20040;-39
2023/01/09 03:57:04;;;;;;;51.70;30.58;;;;;;;-0.09;95.05;93551.53;5008538;28;20034;-39
2023/01/09 03:59:29;;;;;;;46.83;26.85;;;;;;;0.07;93.66;93555.63;5008572;28;20033;-39
2023/01/09 04:01:55;;;;;;;41.25;24.58;;;;;;;0.07;93.36;93550.19;5008123;28;20037;-40
2023/01/09 04:04:20;;;;;;;41.28;25.58;;;;;;;0.08;93.98;93557.13;5013743;28;20029;-39
2023/01/09 04:06:46;;;;;;;37.25;25.02;;;;;;;0.12;94.86;93557.66;5027789;28;20033;-40
2023/01/09 04:09:11;;;;;;;51.28;26.63;;;;;;;0.10;93.97;93554.66;5027764;28;20045;-39
2023/01/09 04:11:37;;;;;;;40.10;25.40;;;;;;;0.23;93.87;93560.47;5027713;28;20063;-39
2023/01/09 04:14:02;;;;;;;36.67;24.02;;;;;;;0.05;93.47;93544.50;5027614;28;20033;-40
2023/01/09 04:16:27;;;;;;;38.08;21.73;;;;;;;0.35;93.12;93556.63;5027802;28;20056;-40
2023/01/09 04:18:53;;;;;;;44.78;22.38;;;;;;;0.31;92.98;93559.56;5027571;28;20037;-40
2023/01/09 04:21:18;;;;;;;35.92;23.23;;;;;;;0.11;94.34;93558.88;5027944;28;20087;-40
2023/01/09 04:23:44;;;;;;;40.10;21.48;;;;;;;0.35;94.02;93562.81;5019596;28;20037;-40
2023/01/09 04:26:09;;;;;;;42.25;25.63;;;;;;;0.17;93.06;93563.16;5008232;28;20021;-39
2023/01/09 04:28:35;;;;;;;35.92;23.58;;;;;;;0.19;92.94;93559.94;5007919;28;20041;-40
2023/01/09 04:31:01;;;;;;;36.63;24.10;;;;;;;0.12;92.62;93560.34;5026098;28;20041;-40
2023/01/09 04:33:27;;;;;;;42.42;24.02;;;;;;;0.18;92.83;93556.47;5027324;28;20059;-40
2023/01/09 04:35:52;;;;;;;36.67;23.63;;;;;;;0.37;92.60;93559.63;5027352;28;20115;-39
2023/01/09 04:38:18;;;;;;;35.63;23.63;;;;;;;0.36;91.90;93564.31;5027683;28;20036;-39
2023/01/09 04:40:46;;;;;;;44.40;24.90;;;;;;;0.31;92.01;93559.56;5027296;28;20554;-40
2023/01/09 04:43:12;;;;;;;38.10;23.67;;;;;;;0.41;91.85;93566.31;5027552;28;20493;-40
2023/01/09 04:45:37;;;;;;;41.75;25.92;;;;;;;0.36;92.08;93556.16;5018160;28;20041;-40
2023/01/09 04:48:03;;;;;;;48.25;28.33;;;;;;;0.38;92.87;93552.97;5007490;28;20041;-40
2023/01/09 04:50:29;;;;;;;42.92;28.13;;;;;;;0.37;93.55;93554.19;5007734;28;20412;-39
2023/01/09 04:52:55;;;;;;;46.55;27.35;;;;;;;0.28;93.99;93552.38;5007973;28;20025;-39
2023/01/09 04:55:21;;;;;;;43.28;27.98;;;;;;;0.40;94.49;93555.94;5007374;28;20108;-40
2023/01/09 04:57:46;;;;;;;45.22;30.35;;;;;;;0.30;95.23;93562.75;5007773;28;20131;-39
2023/01/09 05:00:12;;;;;;;44.95;26.23;;;;;;;0.41;95.84;93552.72;5007252;28;20029;-40
2023/01/09 05:02:37;;;;;;;42.40;25.88;;;;;;;0.54;95.08;93553.09;5007743;28;20034;-40
2023/01/09 05:05:05;;;;;;;39.60;26.35;;;;;;;0.47;95.97;93548.13;5018934;28;20034;-40
2023/01/09 05:07:31;;;;;;;39.85;24.75;;;;;;;0.60;95.97;93545.75;5027251;28;20041;-40
2023/01/09 05:09:56;;;;;;;43.47;24.58;;;;;;;0.82;96.52;93539.75;5027044;28;20037;-40
2023/01/09 05:12:21;;;;;;;38.22;25.55;;;;;;;0.86;97.49;93531.34;5027023;28;20040;-40
2023/01/09 05:14:47;;;;;;;37.58;23.30;;;;;;;0.83;97.18;93533.06;5027195;28;20052;-40
2023/01/09 05:17:12;;;;;;;35.88;23.88;;;;;;;0.84;96.80;93528.38;5019045;28;20030;-40
2023/01/09 05:19:38;;;;;;;43.50;24.88;;;;;;;0.89;97.86;93531.13;5007214;28;20026;-40
2023/01/09 05:22:03;;;;;;;51.90;28.70;;;;;;;1.01;98.48;93538.13;5007202;28;20060;-40
2023/01/09 05:24:29;;;;;;;54.13;29.92;;;;;;;1.05;98.23;93543.34;5007092;28;20068;-40
2023/01/09 05:26:54;;;;;;;61.80;32.03;;;;;;;1.07;98.18;93524.56;5007342;28;20022;-40
2023/01/09 05:29:20;;;;;;;61.25;32.03;;;;;;;1.16;97.71;93535.25;5013236;28;20026;-40
2023/01/09 05:31:45;;;;;;;57.08;29.85;;;;;;;1.30;97.29;93532.34;5027016;28;20103;-40
2023/01/09 05:34:11;;;;;;;58.22;30.88;;;;;;;1.23;96.50;93526.63;5026910;28;20021;-40
2023/01/09 05:36:36;;;;;;;62.78;32.60;;;;;;;1.27;96.47;93532.59;5026965;28;20546;-40
2023/01/09 05:39:02;;;;;;;42.78;23.23;;;;;;;1.41;97.17;93526.22;5027099;28;20052;-40
2023/01/09 05:41:27;;;;;;;43.20;25.05;;;;;;;1.61;97.29;93528.03;5026596;28;20493;-40
2023/01/09 05:43:53;;;;;;;38.15;24.50;;;;;;;1.49;96.62;93533.44;5026873;28;20033;-40
2023/01/09 05:46:18;;;;;;;43.20;25.40;;;;;;;1.56;96.83;93529.50;5011896;28;20531;-40
2023/01/09 05:48:44;;;;;;;45.55;26.30;;;;;;;1.60;96.74;93530.03;5007638;28;20026;-40
2023/01/09 05:51:10;;;;;;;48.50;25.48;;;;;;;1.70;96.03;93536.00;5007121;28;20026;-40
2023/01/09 05:53:35;;;;;;;39.33;24.77;;;;;;;1.61;95.53;93523.34;5007044;28;20021;-40
2023/01/09 05:56:01;;;;;;;38.38;23.45;;;;;;;1.69;94.67;93529.78;5007194;28;20061;-40
2023/01/09 05:58:27;;;;;;;48.90;28.58;;;;;;;1.61;94.76;93517.16;5007158;28;20041;-40
2023/01/09 06:00:52;;;;;;;52.88;30.83;;;;;;;1.63;94.88;93531.00;5007102;28;20525;-40
2023/01/09 06:03:18;;;;;;;60.42;33.05;;;;;;;1.58;94.71;93535.22;5010715;28;20117;-40
2023/01/09 06:05:43;;;;;;;55.90;31.70;;;;;;;1.66;95.40;93530.78;5027074;28;20025;-40
2023/01/09 06:08:09;;;;;;;52.67;29.65;;;;;;;1.74;95.27;93533.78;5030251;28;20044;-40
2023/01/09 06:10:34;;;;;;;50.80;28.77;;;;;;;1.77;95.01;93530.84;5030394;28;20091;-40
2023/01/09 06:13:00;;;;;;;53.17;31.10;;;;;;;1.88;95.18;93524.69;5030281;28;20029;-40
2023/01/09 06:15:26;;;;;;;47.45;28.00;;;;;;;1.93;95.16;93527.41;5030140;28;20048;-40
2023/01/09 06:17:51;;;;;;;40.25;22.90;;;;;;;1.95;95.31;93519.47;5016718;28;20398;-40
2023/01/09 06:20:17;;;;;;;42.13;23.65;;;;;;;1.91;95.12;93513.53;5010074;28;20037;-40
2023/01/09 06:22:44;;;;;;;47.28;24.92;;;;;;;2.01;95.52;93522.97;5010329;28;20068;-40
2023/01/09 06:25:10;;;;;;;41.65;25.45;;;;;;;2.00;95.48;93516.03;5009959;28;20030;-40
2023/01/09 06:27:35;;;;;;;35.90;20.90;;;;;;;2.03;95.35;93509.63;5010321;28;20026;-40
2023/01/09 06:30:00;;;;;;;48.03;23.83;;;;;;;2.12;94.67;93511.38;5021079;28;20037;-40
2023/01/09 06:32:26;;;;;;;43.40;27.83;;;;;;;2.19;94.78;93516.31;5029790;28;20034;-40
2023/01/09 06:34:51;;;;;;;45.88;26.95;;;;;;;2.14;94.31;93512.34;5029548;28;20060;-40
2023/01/09 06:37:17;;;;;;;46.45;25.52;;;;;;;2.16;94.56;93514.59;5029637;28;20501;-40
2023/01/09 06:39:42;;;;;;;45.45;25.83;;;;;;;2.18;94.21;93520.28;5029717;28;20048;-39
2023/01/09 06:42:07;;;;;;;41.42;25.05;;;;;;;2.14;94.20;93522.50;5029359;28;20022;-40
2023/01/09 06:44:35;;;;;;;45.70;25.67;;;;;;;2.27;93.83;93517.34;5028910;28;20060;-40
2023/01/09 06:47:02;;;;;;;47.88;25.70;;;;;;;2.24;93.64;93527.22;5009862;28;20045;-40
2023/01/09 06:49:27;;;;;;;46.45;24.80;;;;;;;2.19;94.46;93522.50;5009439;28;20497;-40
2023/01/09 06:51:53;;;;;;;38.72;22.60;;;;;;;2.29;94.11;93531.19;5009806;28;20164;-40
2023/01/09 06:54:19;;;;;;;39.47;21.92;;;;;;;2.27;94.58;93528.22;5009797;28;20041;-40
2023/01/09 06:56:44;;;;;;;42.42;22.88;;;;;;;2.23;94.47;93522.28;5009333;28;20072;-40
2023/01/09 06:59:10;;;;;;;46.83;25.75;;;;;;;2.17;94.73;93507.88;5009816;28;20053;-40
2023/01/09 07:01:38;;;;;;;44.10;24.65;;;;;;;2.27;95.16;93509.16;5009719;28;20494;-40
2023/01/09 07:04:09;;;;;;;45.47;24.98;;;;;;;2.29;95.48;93503.97;5012652;28;20029;-40
2023/01/09 07:06:34;;;;;;;40.60;24.23;;;;;;;2.28;95.63;93499.75;5029498;28;20117;-40
2023/01/09 07:09:00;;;;;;;52.95;25.65;;;;;;;2.43;94.95;93492.06;5027907;28;20103;-40
2023/01/09 07:11:25;;;;;;;43.22;25.27;;;;;;;2.48;94.20;93494.06;5028815;28;20087;-40
2023/01/09 07:13:51;;;;;;;35.30;22.17;;;;;;;2.53;93.70;93476.97;5029213;28;20041;-40
2023/01/09 07:16:16;;;;;;;40.00;22.02;;;;;;;2.87;92.34;93492.06;5015707;28;20586;-40
2023/01/09 07:18:42;;;;;;;35.35;22.00;;;;;;;3.05;90.65;93491.50;5009028;28;20026;-40
2023/01/09 07:21:07;;;;;;;33.30;18.95;;;;;;;3.03;90.47;93493.28;5009008;28;20038;-40
2023/01/09 07:23:32;;;;;;;34.63;21.13;;;;;;;3.01;89.75;93491.03;5008986;28;20036;-40
2023/01/09 07:25:59;;;;;;;38.97;22.50;;;;;;;2.87;90.54;93494.78;5007704;28;20037;-40
2023/01/09 07:28:24;;;;;;;40.05;23.05;;;;;;;3.03;90.37;93496.72;5008943;28;20651;-40
2023/01/09 07:30:50;;;;;;;39.10;23.00;;;;;;;2.98;90.37;93483.13;5026392;28;20052;-40
2023/01/09 07:33:15;;;;;;;46.97;27.25;;;;;;;3.26;89.43;93493.94;5028504;28;20032;-40
2023/01/09 07:35:41;;;;;;;37.80;22.35;;;;;;;3.20;87.81;93502.16;5028212;28;20115;-40
2023/01/09 07:38:07;;;;;;;41.08;24.33;;;;;;;3.39;88.07;93502.34;5028836;28;20072;-40
2023/01/09 07:40:32;;;;;;;34.78;20.35;;;;;;;3.44;87.00;93499.63;5028493;28;20516;-40
2023/01/09 07:42:58;;;;;;;33.85;20.30;;;;;;;3.51;87.03;93506.53;5028017;28;20029;-40
2023/01/09 07:45:23;;;;;;;43.67;22.45;;;;;;;3.23;87.53;93514.06;5020855;28;20045;-40
2023/01/09 07:47:51;;;;;;;40.78;23.08;;;;;;;3.29;87.94;93515.50;5008540;28;20029;-40
2023/01/09 07:50:17;;;;;;;35.15;21.65;;;;;;;3.27;87.71;93506.38;5008759;28;20057;-41
2023/01/09 07:52:44;;;;;;;33.72;20.20;;;;;;;3.26;87.81;93515.78;5008703;28;20030;-40
2023/01/09 07:55:09;;;;;;;55.67;30.45;;;;;;;3.48;86.86;93510.25;5007180;28;20033;-40
2023/01/09 07:57:35;;;;;;;32.75;20.77;;;;;;;3.53;86.91;93515.69;5008357;28;20033;-40
2023/01/09 08:00:02;;;;;;;33.28;19.13;;;;;;;3.23;86.34;93522.25;5008238;28;20041;-40
2023/01/09 08:02:28;;;;;;;33.97;19.05;;;;;;;3.09;87.60;93515.81;5008196;28;20036;-40
2023/01/09 08:04:53;;;;;;;35.65;20.75;;;;;;;3.10;89.36;93519.31;5018464;28;20029;-40
2023/01/09 08:07:19;;;;;;;34.55;19.67;;;;;;;3.26;88.05;93534.88;5028102;28;20428;-40
2023/01/09 08:09:44;;;;;;;34.03;20.35;;;;;;;3.08;88.39;93527.97;5028036;28;20056;-40
2023/01/09 08:12:10;;;;;;;29.58;17.48;;;;;;;3.04;88.28;93533.69;5017748;28;20548;-40
2023/01/09 08:14:35;;;;;;;30.30;19.02;;;;;;;3.19;87.90;93532.66;5008230;28;20452;-40
2023/01/09 08:17:01;;;;;;;28.38;15.95;;;;;;;3.29;87.56;93529.16;5008086;28;20486;-40
2023/01/09 08:19:27;;;;;;;33.90;17.75;;;;;;;3.24;87.48;93535.38;5008077;28;20395;-40
2023/01/09 08:21:52;;;;;;;31.02;17.83;;;;;;;3.44;86.42;93540.56;5008194;28;20059;-40
2023/01/09 08:24:18;;;;;;;21.83;12.35;;;;;;;3.67;84.89;93543.94;5007552;28;20061;-40
2023/01/09 08:26:43;;;;;;;31.35;17.45;;;;;;;3.53;85.19;93551.19;5007865;28;20021;-40
2023/01/09 08:29:09;;;;;;;29.63;16.65;;;;;;;3.25;86.36;93549.78;5011662;28;20036;-40
2023/01/09 08:31:35;;;;;;;30.70;15.75;;;;;;;3.31;86.14;93542.31;5027862;28;20196;-40
2023/01/09 08:34:01;;;;;;;25.70;16.92;;;;;;;3.25;86.41;93558.69;5027552;28;20820;-41
2023/01/09 08:36:26;;;;;;;24.80;15.07;;;;;;;3.67;84.24;93554.88;5027474;28;20508;-40
2023/01/09 08:38:52;;;;;;;25.45;14.73;;;;;;;3.63;83.83;93566.06;5027349;28;20025;-40
2023/01/09 08:49:30;;;;;;;21.48;14.77;;;;;;;3.78;82.70;93546.63;5007892;28;20040;-40
2023/01/09 08:51:55;;;;;;;19.33;13.05;;;;;;;3.95;82.51;93546.56;5007684;28;20030;-40
2023/01/09 08:54:21;;;;;;;23.23;15.07;;;;;;;4.22;80.72;93545.69;5007574;28;20465;-40
2023/01/09 08:56:46;;;;;;;17.45;11.15;;;;;;;4.65;78.65;93551.38;5007585;28;20289;-40
2023/01/09 08:59:12;;;;;;;21.83;13.00;;;;;;;4.46;78.41;93543.78;5007509;28;20026;-40
2023/01/09 09:01:37;;;;;;;15.85;10.45;;;;;;;4.59;77.81;93545.97;5007691;28;20033;-40
2023/01/09 09:04:04;;;;;;;17.73;10.18;;;;;;;4.85;77.13;93545.53;5010451;28;20477;-40
2023/01/09 09:06:30;;;;;;;15.57;10.82;;;;;;;4.90;77.02;93540.00;5027103;28;20036;-40
2023/01/09 09:08:56;;;;;;;17.95;10.98;;;;;;;5.04;76.20;93538.91;5012637;28;20034;-40
2023/01/09 09:11:21;;;;;;;14.05;9.82;;;;;;;5.23;74.16;93536.97;5007634;28;20067;-40
2023/01/09 09:13:46;;;;;;;16.35;10.35;;;;;;;5.14;74.67;93531.09;5007479;28;20069;-40
2023/01/09 09:16:12;;;;;;;16.95;11.18;;;;;;;4.86;75.60;93541.53;5007368;28;20038;-40
2023/01/09 09:18:37;;;;;;;16.15;9.57;;;;;;;5.03;74.74;93531.94;5007156;28;20037;-40
2023/01/09 09:21:03;;;;;;;19.10;11.93;;;;;;;5.20;75.67;93529.03;5007337;28;20029;-40
2023/01/09 09:23:28;;;;;;;17.67;10.98;;;;;;;5.59;72.77;93528.66;5007645;28;20030;-40
2023/01/09 09:25:54;;;;;;;17.88;12.75;;;;;;;5.45;73.21;93518.84;5007557;28;20033;-40
2023/01/09 09:28:19;;;;;;;14.45;9.65;;;;;;;5.36;72.16;93514.47;5007730;28;20123;-40
2023/01/09 09:30:46;;;;;;;17.45;11.30;;;;;;;5.60;72.99;93513.72;5007584;28;20057;-40
2023/01/09 09:33:11;;;;;;;14.10;8.88;;;;;;;5.57;71.38;93507.25;5007170;28;20510;-40
2023/01/09 09:35:37;;;;;;;15.90;9.88;;;;;;;5.43;71.84;93500.22;5008275;28;20068;-40
2023/01/09 09:38:03;;;;;;;16.90;11.55;;;;;;;5.06;73.85;93487.16;5011289;28;20037;-40
2023/01/09 09:40:47;;;;;;;17.58;10.40;;;;;;;4.66;75.67;93481.78;5011080;28;20057;-40
2023/01/09 09:46:13;;;;;;;20.45;11.70;;;;;;;5.35;73.62;93466.44;5009505;28;20099;-40
2023/01/09 09:48:56;;;;;;;15.75;11.13;;;;;;;5.52;72.28;93461.53;5010931;28;20476;-40
2023/01/09 09:52:01;;;;;;;15.48;9.82;;;;;;;5.59;71.39;93460.22;5010677;28;20037;-40
2023/01/09 09:54:34;;;;;;;17.45;11.02;;;;;;;5.94;71.54;93447.06;5011045;28;20698;-40
2023/01/09 09:57:01;;;;;;;14.50;9.73;;;;;;;7.19;67.13;93448.84;5009370;28;20104;-40
2023/01/09 09:59:31;;;;;;;15.65;9.27;;;;;;;8.87;62.43;93443.53;5009400;28;20113;-40
2023/01/09 10:02:09;;;;;;;12.25;8.05;;;;;;;10.14;58.33;93427.59;5009421;28;20022;-40
2023/01/09 10:04:38;;;;;;;13.32;9.02;;;;;;;10.22;54.82;93431.84;5017731;28;20022;-40
2023/01/09 10:07:08;;;;;;;15.73;9.57;;;;;;;9.11;57.27;93429.41;5030034;28;20036;-40
2023/01/09 10:09:45;;;;;;;15.77;7.68;;;;;;;9.53;56.11;93424.53;5030356;28;20052;-41
2023/01/09 10:12:26;;;;;;;12.73;8.38;;;;;;;9.52;55.96;93411.28;5030216;28;20121;-41
2023/01/09 10:14:53;;;;;;;17.10;8.82;;;;;;;10.15;55.56;93410.50;5029716;28;20033;-40
2023/01/09 10:17:27;;;;;;;11.98;8.65;;;;;;;11.38;52.19;93394.22;5020974;28;20037;-40
2023/01/09 10:20:00;;;;;;;11.02;8.18;;;;;;;11.62;50.49;93385.34;5010108;28;20025;-40
2023/01/09 10:22:38;;;;;;;11.05;7.35;;;;;;;12.68;48.47;93384.88;5010314;28;20029;-40
2023/01/09 10:25:48;;;;;;;9.70;7.75;;;;;;;11.76;49.01;93372.78;5010045;28;20063;-41
2023/01/09 10:28:30;;;;;;;12.45;7.53;;;;;;;12.16;48.06;93368.00;4977299;28;20038;-40
2023/01/09 10:31:01;;;;;;;11.38;8.57;;;;;;;12.43;46.16;93373.03;5009107;28;20104;-41
2023/01/09 10:33:36;;;;;;;13.48;8.30;;;;;;;11.92;46.94;93365.91;5009841;28;20551;-40
2023/01/09 10:36:20;;;;;;;12.18;8.30;;;;;;;10.99;49.28;93356.13;5009803;28;20133;-41
2023/01/09 10:38:48;;;;;;;12.90;8.38;;;;;;;8.68;55.17;93345.91;5009865;28;20498;-40
2023/01/09 10:41:20;;;;;;;11.90;8.43;;;;;;;9.57;53.91;93344.97;5008638;28;20441;-40
2023/01/09 10:44:04;;;;;;;12.55;9.15;;;;;;;8.79;55.80;93338.09;5008258;28;20034;-40
2023/01/09 10:46:40;;;;;;;12.88;8.60;;;;;;;8.97;55.29;93337.13;5007750;28;20045;-41
2023/01/09 10:49:11;;;;;;;11.52;7.97;;;;;;;8.76;56.22;93324.69;5008699;28;20532;-41
2023/01/09 10:51:45;;;;;;;13.65;8.50;;;;;;;9.11;54.55;93321.25;5008386;28;20050;-40
2023/01/09 10:54:20;;;;;;;12.80;8.57;;;;;;;7.78;58.02;93321.03;5009431;28;20490;-40
2023/01/09 10:56:59;;;;;;;17.13;10.25;;;;;;;6.93;61.86;93320.53;5009288;28;20084;-40
2023/01/09 10:59:25;;;;;;;15.65;9.63;;;;;;;7.13;61.87;93328.13;5008670;28;20478;-40
2023/01/09 11:01:50;;;;;;;15.15;9.30;;;;;;;6.37;63.88;93318.06;5008134;28;20040;-40
2023/01/09 11:04:28;;;;;;;13.07;8.38;;;;;;;6.25;64.45;93307.81;5014028;28;20037;-40
2023/01/09 11:06:59;;;;;;;14.32;9.98;;;;;;;5.92;66.74;93311.84;5029243;28;20037;-40
2023/01/09 11:09:24;;;;;;;15.35;9.55;;;;;;;6.77;63.83;93302.41;5027875;28;20029;-41
2023/01/09 11:11:50;;;;;;;13.45;9.00;;;;;;;7.55;61.44;93310.53;5029309;28;20424;-40
2023/01/09 11:14:26;;;;;;;14.65;9.73;;;;;;;8.39;58.76;93306.63;5028076;28;20029;-40
2023/01/09 11:16:54;;;;;;;14.70;10.15;;;;;;;7.91;59.58;93299.72;5023692;28;20017;-40
2023/01/09 11:19:20;;;;;;;17.15;11.00;;;;;;;6.87;63.01;93308.94;5009451;28;20114;-40
2023/01/09 11:21:45;;;;;;;11.98;9.27;;;;;;;6.54;63.85;93298.59;5009073;28;20030;-40
2023/01/09 11:24:20;;;;;;;14.95;10.20;;;;;;;6.01;66.04;93303.97;5008916;28;20124;-40
2023/01/09 11:26:50;;;;;;;16.98;11.43;;;;;;;6.05;66.74;93296.19;5009331;28;20029;-40
2023/01/09 11:29:18;;;;;;;15.15;11.00;;;;;;;6.40;66.69;93299.84;5009089;28;20552;-40
2023/01/09 11:31:56;;;;;;;16.08;11.65;;;;;;;7.31;62.69;93293.59;5007703;28;20053;-40
2023/01/09 11:34:25;;;;;;;12.50;8.57;;;;;;;7.61;60.82;93280.94;5008894;28;20568;-40
2023/01/09 11:37:03;;;;;;;13.35;9.95;;;;;;;8.31;59.46;93289.31;5007797;28;20026;-40
2023/01/09 11:39:31;;;;;;;15.20;11.00;;;;;;;8.97;57.49;93273.81;5007535;28;20033;-40
2023/01/09 11:41:58;;;;;;;16.33;10.80;;;;;;;9.58;55.97;93285.09;5007804;28;20026;-40
2023/01/09 11:44:25;;;;;;;12.85;9.55;;;;;;;10.53;53.37;93281.59;5008580;28;20713;-41